Time;durP1;ratioP1;P1;durP2;ratioP2;P2;SDS_P1;SDS_P2;PMS_P1;PMS_P2;Temp;Humidity;BMP_temperature;BMP_pressure;BME280_temperature;BME280_humidity;BME280_pressure;Samples;Min_cycle;Max_cycle;Signal;HPM_P1;HPM_P2
2021/10/26 00:01:09;;;;;;;8.63;7.07;;;;;;;9.20;59.16;99910.81;5003614;28;20229;-78
2021/10/26 00:03:58;;;;;;;9.00;7.07;;;;;;;9.12;59.66;99898.50;5040865;23;20245;-78
2021/10/26 00:07:09;;;;;;;8.50;6.90;;;;;;;8.96;59.40;99882.03;5113227;23;20236;-78
2021/10/26 00:10:05;;;;;;;7.60;6.80;;;;;;;8.99;60.26;99903.81;5038701;23;20234;-79
2021/10/26 00:13:18;;;;;;;8.83;7.30;;;;;;;9.12;60.05;99906.50;5122886;23;20234;-78
2021/10/26 00:16:39;;;;;;;9.07;7.33;;;;;;;9.00;60.21;99910.81;5063377;23;20225;-78
2021/10/26 00:19:38;;;;;;;8.80;6.90;;;;;;;8.97;60.43;99902.38;5062468;28;20236;-79
2021/10/26 00:23:18;;;;;;;9.40;7.20;;;;;;;8.93;60.42;99904.63;5043006;23;20211;-79
2021/10/26 00:26:07;;;;;;;9.03;7.40;;;;;;;8.94;60.46;99910.78;5038759;23;20227;-78
2021/10/26 00:29:17;;;;;;;10.97;7.30;;;;;;;8.97;60.40;99915.72;5061943;23;20214;-78
2021/10/26 00:31:56;;;;;;;8.80;6.90;;;;;;;8.94;60.57;99911.63;5044939;23;20218;-78
2021/10/26 00:34:56;;;;;;;10.07;7.37;;;;;;;8.80;60.85;99913.44;5140446;23;20252;-78
2021/10/26 00:37:46;;;;;;;10.27;7.37;;;;;;;8.91;60.28;99920.06;5096918;23;20211;-79
2021/10/26 00:41:40;;;;;;;10.67;7.20;;;;;;;8.83;60.72;99920.22;5071626;23;20224;-78
2021/10/26 00:44:37;;;;;;;9.33;6.90;;;;;;;8.59;61.55;99912.72;5175838;23;20226;-78
2021/10/26 00:47:41;;;;;;;9.70;7.33;;;;;;;8.48;62.68;99929.34;5042315;22;20720;-78
2021/10/26 00:51:17;;;;;;;7.00;6.27;;;;;;;8.27;62.96;99938.22;5080115;23;20229;-78
2021/10/26 00:54:27;;;;;;;10.53;6.97;;;;;;;8.14;63.64;99932.81;4600165;22;13781291;-78
2021/10/26 00:57:29;;;;;;;8.23;6.93;;;;;;;7.91;63.97;99920.56;5102757;22;20224;-78
2021/10/26 01:00:42;;;;;;;9.03;6.70;;;;;;;7.74;64.27;99937.91;5109715;22;20229;-78
2021/10/26 01:03:53;;;;;;;8.97;6.97;;;;;;;7.50;63.73;99939.16;5102047;22;20228;-80
2021/10/26 01:06:59;;;;;;;9.70;6.73;;;;;;;7.39;64.75;99950.31;5193250;22;20224;-78
2021/10/26 01:10:09;;;;;;;6.90;6.20;;;;;;;7.21;65.55;99944.59;5111042;22;20231;-78
2021/10/26 01:13:01;;;;;;;9.70;7.30;;;;;;;6.98;65.59;99952.78;5103811;23;20229;-78
2021/10/26 01:16:10;;;;;;;7.60;6.80;;;;;;;6.82;66.78;99946.84;5078722;23;20252;-78
2021/10/26 01:22:14;;;;;;;7.70;6.70;;;;;;;6.50;67.25;99940.09;5042156;22;20218;-78
2021/10/26 01:25:19;;;;;;;10.00;7.07;;;;;;;6.34;67.75;99935.00;5122678;22;20276;-78
2021/10/26 01:28:40;;;;;;;9.00;6.47;;;;;;;6.34;67.08;99935.84;5175755;23;20232;-78
2021/10/26 01:31:58;;;;;;;10.20;7.10;;;;;;;6.13;68.39;99941.88;5107087;22;20296;-78
2021/10/26 01:34:56;;;;;;;9.90;7.03;;;;;;;5.98;68.36;99950.84;5084907;22;20244;-79
2021/10/26 01:38:07;;;;;;;7.83;6.43;;;;;;;5.83;69.62;99952.66;5067158;23;20245;-78
2021/10/26 01:41:42;;;;;;;8.37;6.77;;;;;;;5.67;69.85;99951.81;5156240;23;20196;-78
2021/10/26 01:44:50;;;;;;;9.30;7.20;;;;;;;5.46;71.04;99953.50;5052380;22;20229;-78
2021/10/26 01:47:58;;;;;;;9.03;6.73;;;;;;;5.41;70.65;99959.34;5093122;22;20233;-77
2021/10/26 01:50:53;;;;;;;8.90;7.27;;;;;;;5.28;71.54;99969.72;5151798;22;20194;-78
2021/10/26 01:54:06;;;;;;;9.27;7.07;;;;;;;5.13;71.94;99964.34;5166199;22;20219;-78
2021/10/26 01:57:08;;;;;;;10.10;7.10;;;;;;;5.06;72.07;99967.88;5071098;22;20264;-78
2021/10/26 02:00:42;;;;;;;9.37;6.83;;;;;;;4.93;72.48;99973.78;5086194;22;20244;-79
2021/10/26 02:03:44;;;;;;;9.17;6.77;;;;;;;4.72;72.27;99968.25;5065078;22;20286;-78
2021/10/26 02:06:46;;;;;;;9.13;7.30;;;;;;;4.62;72.30;99962.34;5343635;22;20196;-78
2021/10/26 02:09:54;;;;;;;8.60;6.57;;;;;;;4.58;72.05;99971.63;5040869;23;20306;-78
2021/10/26 02:12:52;;;;;;;9.07;6.30;;;;;;;4.35;72.45;99985.66;5074127;23;20217;-78
2021/10/26 02:16:31;;;;;;;7.60;6.33;;;;;;;4.22;72.76;99989.84;5083064;22;20261;-78
2021/10/26 02:19:30;;;;;;;8.33;6.20;;;;;;;4.08;72.50;99979.94;5086308;22;20232;-78
2021/10/26 02:23:06;;;;;;;7.67;6.20;;;;;;;4.02;73.02;99997.34;5085275;22;20229;-78
2021/10/26 02:26:23;;;;;;;8.40;6.13;;;;;;;3.92;72.81;99994.03;5093032;22;20648;-78
2021/10/26 02:29:39;;;;;;;7.27;6.57;;;;;;;3.80;73.19;100000.69;5084122;22;20233;-78
2021/10/26 02:32:22;;;;;;;7.67;6.87;;;;;;;3.74;73.34;99996.03;5046235;23;20236;-79
2021/10/26 02:35:32;;;;;;;7.57;6.73;;;;;;;3.55;73.59;99978.66;5091507;22;20225;-78
2021/10/26 02:38:21;;;;;;;7.57;6.60;;;;;;;3.51;74.07;99993.22;5091088;22;20301;-78
2021/10/26 02:41:44;;;;;;;7.70;6.50;;;;;;;3.35;74.08;99991.44;5026984;22;20663;-77
2021/10/26 02:44:43;;;;;;;7.33;6.37;;;;;;;3.19;74.13;99982.63;5082976;22;20233;-77
2021/10/26 02:47:49;;;;;;;9.13;6.60;;;;;;;3.06;74.39;99967.22;5086353;22;20193;-77
2021/10/26 02:50:58;;;;;;;9.97;6.87;;;;;;;3.07;74.47;99993.53;3313122;22;20217;-78
2021/10/26 02:53:58;;;;;;;7.47;6.67;;;;;;;3.05;74.84;99989.38;5175991;22;20204;-77
2021/10/26 02:56:48;;;;;;;7.90;6.43;;;;;;;2.94;75.34;99981.78;5091634;22;20225;-77
2021/10/26 02:59:57;;;;;;;8.83;6.80;;;;;;;2.82;75.05;99970.66;5033657;23;20296;-77
2021/10/26 03:02:52;;;;;;;10.27;7.03;;;;;;;2.95;75.14;100008.06;5073011;22;20214;-77
2021/10/26 03:05:38;;;;;;;9.47;6.40;;;;;;;2.88;76.10;100007.06;5063092;22;20189;31
2021/10/26 03:08:27;;;;;;;8.57;6.80;;;;;;;2.85;75.93;100012.66;5062226;23;20233;-78
2021/10/26 03:11:20;;;;;;;8.73;6.33;;;;;;;2.77;76.18;100014.44;5084954;22;20244;-78
2021/10/26 03:17:24;;;;;;;7.70;6.00;;;;;;;2.66;76.57;100024.31;5160766;22;20255;-78
2021/10/26 03:20:44;;;;;;;8.03;6.47;;;;;;;2.62;76.23;100020.34;5090527;22;20281;-77
2021/10/26 03:23:43;;;;;;;7.00;6.10;;;;;;;2.54;76.23;100011.56;5058798;23;20251;-77
2021/10/26 03:27:05;;;;;;;9.13;6.20;;;;;;;2.44;76.76;100003.75;5175094;22;20201;-77
2021/10/26 03:29:33;;;;;;;7.00;6.30;;;;;;;2.50;76.96;100020.78;5129097;23;20234;-78
2021/10/26 03:32:22;;;;;;;8.30;6.00;;;;;;;2.42;77.01;100011.03;5059386;23;20227;-78
2021/10/26 03:35:23;;;;;;;9.23;6.23;;;;;;;2.47;76.81;100021.94;5176243;22;20248;-78
2021/10/26 03:38:24;;;;;;;8.13;6.43;;;;;;;2.46;77.20;100022.09;5073256;23;20215;-78
2021/10/26 03:41:15;;;;;;;8.83;6.37;;;;;;;2.44;76.98;100024.06;5082992;22;20239;-77
2021/10/26 03:44:05;;;;;;;7.13;6.10;;;;;;;2.41;76.79;100027.03;5067711;23;20229;-77
2021/10/26 03:46:53;;;;;;;7.83;6.30;;;;;;;2.33;77.01;100014.63;5077324;28;20200;-78
2021/10/26 03:50:33;;;;;;;8.83;6.80;;;;;;;2.15;77.25;100019.94;5107539;22;20237;-77
2021/10/26 03:53:18;;;;;;;8.30;6.93;;;;;;;2.14;77.57;100030.69;5054654;23;20239;-77
2021/10/26 03:56:29;;;;;;;7.90;7.00;;;;;;;2.17;77.82;100038.31;5069629;22;20225;-77
2021/10/26 03:59:44;;;;;;;9.90;6.73;;;;;;;2.11;77.92;100037.09;5159681;22;20220;-78
2021/10/26 04:02:50;;;;;;;8.23;6.10;;;;;;;1.82;77.83;100015.44;5058614;28;20229;-77
2021/10/26 04:06:01;;;;;;;6.93;6.10;;;;;;;1.97;77.81;100044.75;5089592;22;20225;-77
2021/10/26 04:12:43;;;;;;;7.30;5.40;;;;;;;1.88;77.68;100037.75;5058833;23;20322;-77
2021/10/26 04:15:49;;;;;;;7.93;6.10;;;;;;;1.80;77.44;100045.63;5004601;28;20206;-77
2021/10/26 04:18:52;;;;;;;6.63;5.53;;;;;;;1.80;77.80;100048.28;5047601;22;20256;-76
2021/10/26 04:22:01;;;;;;;6.60;5.50;;;;;;;1.74;77.62;100037.34;5047256;23;20210;-77
2021/10/26 04:25:01;;;;;;;11.17;5.83;;;;;;;1.70;77.36;100049.19;5074349;23;20226;-76
2021/10/26 04:28:09;;;;;;;6.97;5.80;;;;;;;1.66;77.42;100042.56;5064912;22;20500;-76
2021/10/26 04:31:15;;;;;;;6.07;5.40;;;;;;;1.60;77.04;100040.53;5208393;22;20213;-77
2021/10/26 04:33:54;;;;;;;5.77;5.17;;;;;;;1.57;77.81;100042.66;5110007;22;20207;-78
2021/10/26 04:36:51;;;;;;;8.50;5.13;;;;;;;1.58;76.98;100045.16;5102670;22;20219;-78
2021/10/26 04:39:59;;;;;;;6.77;5.37;;;;;;;1.56;77.44;100047.09;5077692;23;20236;-78
2021/10/26 04:43:03;;;;;;;8.77;5.70;;;;;;;1.57;77.16;100046.13;5068809;23;20233;-78
2021/10/26 04:46:02;;;;;;;6.73;5.30;;;;;;;1.54;76.76;100045.59;5064125;22;20224;-79
2021/10/26 04:49:13;;;;;;;9.37;8.13;;;;;;;1.52;76.94;100039.63;5068414;23;20233;-78
2021/10/26 04:52:03;;;;;;;9.83;7.80;;;;;;;1.55;76.70;100050.72;5150242;22;20255;-76
2021/10/26 04:54:31;;;;;;;9.47;7.27;;;;;;;1.45;76.55;100049.13;5074795;23;20215;-77
2021/10/26 04:57:08;;;;;;;7.50;6.80;;;;;;;1.43;76.47;100049.28;5100686;23;20362;-78
2021/10/26 05:00:21;;;;;;;6.90;5.37;;;;;;;1.44;76.16;100055.41;5108171;22;20231;-78
2021/10/26 05:03:01;;;;;;;7.07;5.60;;;;;;;1.46;75.95;100056.06;5085701;22;20176;-77
2021/10/26 05:06:15;;;;;;;8.53;6.13;;;;;;;1.42;76.76;100057.34;5083294;28;20223;-77
2021/10/26 05:09:26;;;;;;;7.90;5.37;;;;;;;1.32;76.22;100052.16;5064784;22;20233;-78
2021/10/26 05:12:35;;;;;;;8.50;5.83;;;;;;;1.30;77.42;100060.22;5029733;23;20207;-77
2021/10/26 05:16:07;;;;;;;7.47;6.60;;;;;;;1.30;76.90;100062.03;5066335;22;20255;-77
2021/10/26 05:19:03;;;;;;;8.27;6.80;;;;;;;1.29;77.15;100063.84;5028710;23;20298;-77
2021/10/26 05:22:30;;;;;;;8.37;6.37;;;;;;;1.16;77.21;100047.56;5049462;23;20226;-77
2021/10/26 05:30:01;;;;;;;9.17;6.20;;;;;;;1.25;77.07;100075.69;5032917;28;20227;-77
2021/10/26 05:33:05;;;;;;;7.07;5.80;;;;;;;1.25;77.55;100074.84;5056764;23;20296;-77
2021/10/26 05:36:19;;;;;;;7.70;6.63;;;;;;;1.26;77.80;100084.44;5122876;22;20237;-77
2021/10/26 05:39:05;;;;;;;8.40;6.80;;;;;;;1.16;77.90;100063.38;5044087;22;20233;-77
2021/10/26 05:42:29;;;;;;;8.27;6.27;;;;;;;1.28;77.46;100082.47;5056208;22;20238;-77
2021/10/26 05:45:14;;;;;;;8.07;7.27;;;;;;;1.23;77.73;100075.00;5057470;22;20265;-77
2021/10/26 05:47:59;;;;;;;9.47;7.00;;;;;;;1.37;77.53;100092.13;5030642;28;20276;-78
2021/10/26 05:51:18;;;;;;;8.37;7.20;;;;;;;1.37;76.49;100097.41;5014396;23;20215;-77
2021/10/26 05:54:12;;;;;;;11.13;6.90;;;;;;;1.35;76.60;100078.25;5058957;23;20248;-77
2021/10/26 05:57:25;;;;;;;13.00;8.87;;;;;;;1.45;76.17;100084.28;5042849;22;20259;-77
2021/10/26 06:00:26;;;;;;;10.87;8.60;;;;;;;1.60;76.34;100106.56;5086223;23;20240;-77
2021/10/26 06:03:45;;;;;;;11.90;8.40;;;;;;;1.68;75.37;100100.53;5085918;23;20245;-78
2021/10/26 06:06:21;;;;;;;9.13;7.80;;;;;;;1.74;75.33;100099.91;5068370;22;20233;-77
2021/10/26 06:10:03;;;;;;;9.23;7.30;;;;;;;1.81;75.28;100106.25;5052282;23;20228;-79
2021/10/26 06:13:26;;;;;;;10.37;7.13;;;;;;;1.94;74.96;100114.63;5086785;23;20234;-77
2021/10/26 06:16:34;;;;;;;9.10;7.60;;;;;;;2.01;74.28;100104.25;5065251;23;20233;-77
2021/10/26 06:19:22;;;;;;;9.17;7.27;;;;;;;2.17;73.11;100130.81;5039776;23;20233;-77
2021/10/26 06:22:28;;;;;;;10.07;7.00;;;;;;;2.27;73.48;100115.69;5029384;23;20232;-77
2021/10/26 06:26:15;;;;;;;9.13;6.67;;;;;;;2.36;72.45;100122.72;5160664;23;20221;-78
2021/10/26 06:29:33;;;;;;;10.53;7.30;;;;;;;2.53;71.35;100119.16;5028527;23;20219;-77
2021/10/26 06:33:04;;;;;;;8.07;6.80;;;;;;;2.69;70.51;100122.91;5284988;23;20234;-78
2021/10/26 06:36:16;;;;;;;9.57;7.53;;;;;;;2.89;70.75;100127.78;5056454;23;20205;-77
2021/10/26 06:39:09;;;;;;;8.97;7.03;;;;;;;2.76;69.80;100108.88;5073944;23;20222;-79
2021/10/26 06:42:33;;;;;;;10.50;7.43;;;;;;;3.04;70.53;100135.97;5044377;23;20262;-77
2021/10/26 06:45:43;;;;;;;8.30;7.03;;;;;;;3.23;69.80;100148.94;5058234;23;20210;-77
2021/10/26 06:49:09;;;;;;;7.90;6.57;;;;;;;3.29;68.92;100137.72;4939911;29;20210;-78
2021/10/26 06:52:29;;;;;;;9.03;7.20;;;;;;;3.45;69.22;100144.91;5274028;23;20223;-77
2021/10/26 06:55:26;;;;;;;10.03;7.30;;;;;;;3.49;68.70;100141.78;5059989;23;20229;-77
2021/10/26 06:58:58;;;;;;;9.67;7.33;;;;;;;3.60;68.07;100135.31;5060239;23;20227;-77
2021/10/26 07:02:00;;;;;;;11.23;7.47;;;;;;;3.80;67.90;100139.34;5060623;23;20233;-77
2021/10/26 07:05:27;;;;;;;8.93;7.57;;;;;;;3.96;67.46;100136.72;4978087;29;20229;-79
2021/10/26 07:08:15;;;;;;;10.57;7.80;;;;;;;4.09;67.05;100149.47;4956234;29;20228;-79
2021/10/26 07:10:42;;;;;;;9.83;7.90;;;;;;;4.19;66.56;100150.16;4942820;29;20244;-79
2021/10/26 07:13:16;;;;;;;8.40;7.40;;;;;;;4.27;66.60;100158.09;4959183;29;20650;-79
2021/10/26 07:15:45;;;;;;;9.83;7.80;;;;;;;4.50;66.67;100157.41;4959444;29;20220;-79
2021/10/26 07:18:13;;;;;;;9.43;7.77;;;;;;;4.57;66.05;100151.28;4925528;29;20529;-79
2021/10/26 07:20:40;;;;;;;11.47;8.17;;;;;;;4.75;65.72;100167.84;4958495;29;20224;-79
2021/10/26 07:23:29;;;;;;;8.60;7.67;;;;;;;4.81;65.42;100145.91;4942091;29;20351;-79
2021/10/26 07:26:22;;;;;;;9.90;8.40;;;;;;;4.99;64.83;100147.53;4925118;29;20233;-79
2021/10/26 07:28:49;;;;;;;8.60;7.67;;;;;;;5.22;64.69;100162.53;4926661;29;20221;-79
2021/10/26 07:31:18;;;;;;;11.63;7.77;;;;;;;5.43;64.35;100146.00;4938964;29;20240;-79
2021/10/26 07:33:45;;;;;;;9.07;7.87;;;;;;;5.60;63.58;100150.22;4939189;29;20272;-79
2021/10/26 07:36:12;;;;;;;9.20;7.97;;;;;;;5.80;62.90;100157.75;4942158;29;20256;-79
2021/10/26 07:38:41;;;;;;;8.40;7.60;;;;;;;6.00;62.34;100149.16;4926757;29;20229;-79
2021/10/26 07:41:09;;;;;;;9.80;7.37;;;;;;;6.18;61.93;100163.00;4926748;29;20263;-79
2021/10/26 07:44:02;;;;;;;10.00;7.73;;;;;;;6.24;61.18;100142.81;4945550;29;20240;-79
2021/10/26 07:46:56;;;;;;;11.73;7.80;;;;;;;6.52;60.56;100151.91;4929451;29;20268;-79
2021/10/26 07:49:23;;;;;;;10.10;7.77;;;;;;;6.52;59.96;100161.72;4926204;29;20645;-79
2021/10/26 07:52:25;;;;;;;10.37;8.10;;;;;;;6.74;60.40;100154.66;4945438;22;20256;-77
2021/10/26 07:55:34;;;;;;;11.90;9.03;;;;;;;6.79;59.77;100162.94;5066358;23;20213;-77
2021/10/26 07:58:40;;;;;;;10.47;8.13;;;;;;;6.98;59.53;100163.25;5062560;23;20237;-78
2021/10/26 08:01:57;;;;;;;11.03;9.33;;;;;;;7.11;59.23;100161.75;5051870;22;20186;-77
2021/10/26 08:04:56;;;;;;;9.60;8.60;;;;;;;7.32;59.53;100165.34;5040564;23;20235;-77
2021/10/26 08:07:50;;;;;;;36.80;30.93;;;;;;;7.47;59.67;100163.47;5049727;23;20232;-77
2021/10/26 08:15:09;;;;;;;9.77;7.67;;;;;;;7.92;58.29;100166.84;5132124;22;20205;-77
2021/10/26 08:21:55;;;;;;;10.20;7.63;;;;;;;8.29;57.30;100161.31;4991912;23;20244;-76
2021/10/26 08:24:58;;;;;;;9.63;7.63;;;;;;;8.36;56.50;100142.66;5061470;23;20209;-76
2021/10/26 08:28:16;;;;;;;12.77;8.30;;;;;;;8.63;55.19;100147.19;5097123;23;20242;-79
2021/10/26 08:31:40;;;;;;;12.37;8.10;;;;;;;9.08;54.68;100171.75;5098272;22;20244;-76
2021/10/26 08:41:29;;;;;;;16.87;12.40;;;;;;;9.88;52.11;100163.03;5171292;23;20288;-78
2021/10/26 08:44:55;;;;;;;14.27;10.67;;;;;;;10.04;51.71;100158.13;5082914;23;20229;-76
2021/10/26 08:48:02;;;;;;;13.93;10.00;;;;;;;10.23;52.01;100159.22;5056291;28;20229;-78
2021/10/26 08:51:01;;;;;;;11.90;10.37;;;;;;;10.38;51.07;100156.34;5034834;23;20294;-79
2021/10/26 08:53:47;;;;;;;12.83;9.70;;;;;;;10.41;50.60;100139.84;5164467;23;20250;-78
2021/10/26 09:00:31;;;;;;;13.50;9.57;;;;;;;10.89;49.24;100165.38;5062357;23;20225;-78
2021/10/26 09:08:26;;;;;;;12.10;10.17;;;;;;;11.31;49.34;100165.91;5085596;23;20305;-77
2021/10/26 09:19:06;;;;;;;12.00;9.53;;;;;;;11.72;47.72;100171.75;5157411;23;20237;-77
2021/10/26 09:22:20;;;;;;;13.03;9.70;;;;;;;11.76;47.15;100158.72;5074444;23;20233;-78
2021/10/26 09:25:20;;;;;;;12.17;9.47;;;;;;;11.80;47.63;100171.50;5076023;23;20405;-77
2021/10/26 09:28:11;;;;;;;11.47;10.23;;;;;;;11.89;47.09;100167.56;4891295;23;4187430;-77
2021/10/26 09:31:38;;;;;;;11.20;9.23;;;;;;;11.88;46.96;100168.59;5049886;23;20218;-78
2021/10/26 09:34:23;;;;;;;10.83;9.30;;;;;;;11.77;47.32;100176.47;5068597;23;20254;-77
2021/10/26 09:37:50;;;;;;;11.83;9.30;;;;;;;11.90;47.29;100171.03;5128093;23;20256;-77
2021/10/26 09:40:48;;;;;;;12.93;9.07;;;;;;;12.07;47.15;100172.19;5048363;23;20257;-77
2021/10/26 09:43:41;;;;;;;12.63;9.97;;;;;;;12.08;46.55;100159.59;5075718;23;20232;31
2021/10/26 09:47:10;;;;;;;11.83;9.50;;;;;;;12.25;46.72;100174.13;5014079;23;20233;-77
2021/10/26 09:49:57;;;;;;;12.23;9.27;;;;;;;12.42;46.07;100159.13;5051211;23;20294;31
2021/10/26 09:53:20;;;;;;;10.53;9.40;;;;;;;12.71;46.28;100147.72;5012122;23;20225;-77
2021/10/26 09:56:13;;;;;;;11.07;9.33;;;;;;;12.77;45.91;100148.72;5055434;23;20210;-78
2021/10/26 09:59:34;;;;;;;10.87;9.77;;;;;;;12.99;44.53;100158.00;5142986;22;20220;-78
2021/10/26 10:03:11;;;;;;;12.63;9.90;;;;;;;13.26;44.20;100149.66;5058930;28;20205;-78
2021/10/26 10:06:28;;;;;;;11.63;9.30;;;;;;;13.36;43.99;100156.16;5065485;22;20688;-78
2021/10/26 10:09:30;;;;;;;10.80;9.70;;;;;;;13.35;44.02;100154.53;5070863;23;20268;-78
2021/10/26 10:12:26;;;;;;;12.27;9.43;;;;;;;13.41;43.68;100136.66;5063699;23;20285;-78
2021/10/26 10:15:18;;;;;;;12.33;9.60;;;;;;;13.73;43.72;100156.13;5034283;23;20237;-78
2021/10/26 10:18:30;;;;;;;10.83;9.73;;;;;;;13.68;43.11;100146.03;5087347;23;20260;-77
2021/10/26 10:22:14;;;;;;;10.10;9.03;;;;;;;13.81;43.58;100127.00;5059326;28;20213;-78
2021/10/26 10:25:20;;;;;;;10.90;8.63;;;;;;;13.88;42.91;100135.00;5059712;28;20216;-79
2021/10/26 10:28:22;;;;;;;9.77;8.73;;;;;;;13.81;43.32;100147.75;5172251;22;20309;-79
2021/10/26 10:31:36;;;;;;;11.80;10.07;;;;;;;14.00;42.97;100133.16;5068762;23;20229;-79
2021/10/26 10:35:16;;;;;;;12.20;9.57;;;;;;;14.19;43.19;100133.91;5063062;23;20233;-79
2021/10/26 10:37:48;;;;;;;13.60;10.10;;;;;;;14.38;42.21;100122.84;5066655;23;20238;-79
2021/10/26 10:40:41;;;;;;;11.00;9.90;;;;;;;14.70;41.91;100122.53;5024864;28;20222;-79
2021/10/26 10:43:39;;;;;;;10.50;9.23;;;;;;;14.63;41.65;100119.97;5052248;23;20233;-79
2021/10/26 10:47:04;;;;;;;10.57;9.00;;;;;;;14.75;41.12;100122.66;5050650;23;20230;-79
2021/10/26 10:50:32;;;;;;;10.90;8.80;;;;;;;14.64;41.34;100115.41;5056174;28;20253;-79
2021/10/26 10:53:43;;;;;;;11.23;9.30;;;;;;;14.67;41.39;100109.53;5063752;23;20241;-79
2021/10/26 10:56:33;;;;;;;10.43;8.97;;;;;;;14.69;41.91;100102.03;5056542;28;20214;-79
2021/10/26 10:59:47;;;;;;;10.83;8.80;;;;;;;14.57;41.56;100096.63;5139904;23;20241;-80
2021/10/26 11:03:04;;;;;;;10.97;8.57;;;;;;;15.06;41.73;100089.91;5061944;23;20261;-80
2021/10/26 11:05:53;;;;;;;10.47;7.93;;;;;;;15.28;41.35;100099.00;5125545;23;20253;-79
2021/10/26 11:08:52;;;;;;;9.87;8.10;;;;;;;15.10;41.09;100088.38;5056461;28;20234;-79
2021/10/26 11:12:25;;;;;;;9.53;8.50;;;;;;;14.97;41.00;100080.53;5160391;23;20230;-78
2021/10/26 11:15:53;;;;;;;8.43;7.63;;;;;;;15.28;41.08;100085.50;5049419;23;20226;-79
2021/10/26 11:18:32;;;;;;;9.63;8.10;;;;;;;15.23;41.04;100089.97;5220973;23;20226;-80
2021/10/26 11:21:27;;;;;;;9.03;8.10;;;;;;;15.60;40.32;100095.88;5029096;28;20281;-84
2021/10/26 11:24:03;;;;;;;8.97;8.03;;;;;;;15.70;40.57;100086.09;5018961;28;20265;-90
2021/10/26 11:26:48;;;;;;;8.87;7.93;;;;;;;15.98;40.06;100092.53;5016889;28;20223;-81
2021/10/26 11:29:27;;;;;;;10.47;8.30;;;;;;;16.16;39.31;100089.59;5017119;28;20239;-86
2021/10/26 11:31:54;;;;;;;9.27;8.20;;;;;;;16.23;38.93;100071.34;4967840;28;20252;-91
2021/10/26 11:34:32;;;;;;;9.00;8.10;;;;;;;16.27;38.83;100067.09;4983576;28;20228;-91
2021/10/26 11:37:09;;;;;;;7.80;6.93;;;;;;;16.39;38.69;100066.97;4999873;28;20640;-91
2021/10/26 11:39:40;;;;;;;9.07;7.47;;;;;;;16.26;38.36;100058.16;4983975;28;20284;-85
2021/10/26 11:42:12;;;;;;;8.53;6.93;;;;;;;16.23;39.18;100063.25;4983071;28;20300;-90
2021/10/26 11:44:41;;;;;;;10.43;7.57;;;;;;;16.17;39.79;100059.63;4968337;28;20231;-88
2021/10/26 11:47:07;;;;;;;8.47;7.43;;;;;;;16.23;39.27;100061.34;4983153;28;20244;-91
2021/10/26 11:49:34;;;;;;;8.60;7.80;;;;;;;16.29;39.12;100067.66;4999637;28;20237;-89
2021/10/26 11:52:07;;;;;;;8.23;7.37;;;;;;;16.44;39.00;100069.78;4998956;28;20237;-90
2021/10/26 11:54:39;;;;;;;8.27;7.37;;;;;;;16.46;39.06;100063.06;4998666;28;20222;-85
2021/10/26 11:57:08;;;;;;;9.03;7.67;;;;;;;16.60;39.01;100056.28;4983372;28;20256;-91
2021/10/26 12:00:01;;;;;;;8.83;7.90;;;;;;;16.48;39.40;100063.63;4985154;28;20286;-92
2021/10/26 12:02:39;;;;;;;8.77;7.70;;;;;;;16.54;39.03;100061.81;5000744;28;20260;-88
2021/10/26 12:05:20;;;;;;;12.30;8.63;;;;;;;16.52;39.82;100058.53;5000484;28;20233;-91
2021/10/26 12:07:49;;;;;;;9.87;8.20;;;;;;;16.69;40.03;100053.97;4983435;28;20250;-87
2021/10/26 12:10:21;;;;;;;8.43;7.53;;;;;;;16.58;40.09;100044.88;4982638;28;20236;-86
2021/10/26 12:12:48;;;;;;;8.67;7.80;;;;;;;16.49;40.31;100048.22;4983559;28;20529;-87
2021/10/26 12:15:14;;;;;;;9.27;7.53;;;;;;;16.59;40.21;100051.09;5016413;28;20233;-90
2021/10/26 12:17:42;;;;;;;10.10;7.93;;;;;;;16.75;39.96;100052.16;4982890;28;20668;-90
2021/10/26 12:20:20;;;;;;;11.10;7.67;;;;;;;16.83;39.51;100049.81;4998531;28;20284;-90
2021/10/26 12:23:05;;;;;;;8.67;7.77;;;;;;;16.69;39.96;100041.25;4986234;28;20409;-87
2021/10/26 12:25:47;;;;;;;9.57;7.43;;;;;;;16.66;40.46;100035.50;4984297;28;20234;-89
2021/10/26 12:28:14;;;;;;;9.00;7.40;;;;;;;16.70;40.91;100023.94;4998624;28;20235;-91
2021/10/26 12:30:49;;;;;;;10.83;8.10;;;;;;;16.49;41.07;100026.56;4998799;28;20508;-86
2021/10/26 12:33:21;;;;;;;9.27;8.10;;;;;;;16.81;40.38;100043.84;4999511;28;20513;-90
2021/10/26 12:35:59;;;;;;;8.30;7.50;;;;;;;16.89;39.43;100042.59;4998710;28;20227;-88
2021/10/26 12:38:42;;;;;;;9.03;7.90;;;;;;;17.03;40.04;100035.75;4983127;28;20575;-85
2021/10/26 12:41:22;;;;;;;9.00;8.10;;;;;;;16.70;40.25;100039.38;4983469;28;20284;-86
2021/10/26 12:44:04;;;;;;;9.00;8.10;;;;;;;16.38;41.05;100022.09;4969902;28;20575;-90
2021/10/26 12:46:32;;;;;;;8.70;7.80;;;;;;;16.28;42.02;100018.16;4998519;28;20284;-87
2021/10/26 12:49:13;;;;;;;8.77;7.50;;;;;;;16.44;41.88;100023.78;4966385;28;20227;-90
2021/10/26 12:51:43;;;;;;;9.53;8.17;;;;;;;16.44;41.51;100010.28;4989443;28;20244;-90
2021/10/26 12:54:17;;;;;;;10.07;7.87;;;;;;;16.51;41.74;100024.47;4998582;28;20235;-90
2021/10/26 12:57:00;;;;;;;9.30;8.00;;;;;;;16.58;41.75;100031.34;5015888;28;20229;-90
2021/10/26 12:59:28;;;;;;;10.17;8.03;;;;;;;16.57;41.49;100032.38;4983247;28;20230;-88
2021/10/26 13:02:05;;;;;;;9.93;8.17;;;;;;;16.78;40.47;100021.88;4982436;28;20234;-89
2021/10/26 13:04:33;;;;;;;9.40;8.50;;;;;;;16.41;41.62;100029.72;4999081;28;20626;-91
2021/10/26 13:07:06;;;;;;;9.27;8.27;;;;;;;16.62;41.35;100032.47;5002850;28;20340;-90
2021/10/26 13:09:40;;;;;;;9.87;8.80;;;;;;;16.40;41.76;100042.41;5002397;28;20238;-89
2021/10/26 13:12:30;;;;;;;11.37;9.17;;;;;;;16.37;42.03;100037.50;4985904;28;20290;-88
2021/10/26 13:15:20;;;;;;;10.57;9.03;;;;;;;16.39;41.38;100043.47;5002271;28;20268;-89
2021/10/26 13:17:49;;;;;;;9.97;8.73;;;;;;;16.53;41.95;100049.34;4986833;28;20240;-84
2021/10/26 13:20:35;;;;;;;11.43;8.90;;;;;;;16.43;41.75;100051.91;4985433;28;20309;-90
2021/10/26 13:23:08;;;;;;;11.27;8.90;;;;;;;16.40;42.06;100039.72;4987354;28;20226;-89
2021/10/26 13:25:51;;;;;;;10.73;8.80;;;;;;;16.42;41.83;100047.59;5002222;28;20242;-89
2021/10/26 13:28:23;;;;;;;10.33;9.30;;;;;;;16.28;42.51;100039.78;5001916;28;20634;-90
2021/10/26 13:31:19;;;;;;;10.43;8.17;;;;;;;16.27;43.16;100040.88;5002052;28;20227;-90
2021/10/26 13:33:46;;;;;;;9.87;8.87;;;;;;;16.12;43.33;100042.50;5019258;28;20230;-89
2021/10/26 13:36:16;;;;;;;12.27;9.10;;;;;;;15.89;44.25;100038.06;4985340;28;20516;-88
2021/10/26 13:38:44;;;;;;;10.10;9.10;;;;;;;15.89;44.37;100031.84;4985849;28;20226;-84
2021/10/26 13:41:14;;;;;;;10.40;8.63;;;;;;;15.60;44.80;100028.38;5002203;28;20644;-89
2021/10/26 13:43:45;;;;;;;9.80;8.83;;;;;;;15.61;45.15;100041.63;4985955;28;20265;-89
2021/10/26 13:46:19;;;;;;;9.70;8.67;;;;;;;15.42;46.14;100042.84;4985159;28;20239;-90
2021/10/26 13:48:46;;;;;;;10.10;9.10;;;;;;;15.30;46.20;100052.88;4985597;28;20332;-91
2021/10/26 13:51:16;;;;;;;9.70;8.80;;;;;;;15.21;45.46;100062.44;5001794;28;20236;-91
2021/10/26 13:53:43;;;;;;;9.57;8.63;;;;;;;14.85;46.22;100047.34;5001923;28;20648;-85
2021/10/26 13:56:10;;;;;;;9.70;8.80;;;;;;;14.77;47.20;100050.41;4985319;28;20229;-90
2021/10/26 13:58:37;;;;;;;10.47;9.37;;;;;;;14.71;47.11;100062.16;5019009;28;20579;-91
2021/10/26 14:01:10;;;;;;;10.13;9.10;;;;;;;14.54;47.73;100045.88;5001977;28;20230;-90
2021/10/26 14:03:37;;;;;;;10.73;8.80;;;;;;;14.41;48.50;100060.41;4986534;28;20659;-87
2021/10/26 14:06:04;;;;;;;10.53;9.30;;;;;;;14.33;49.11;100052.63;5000997;28;20235;-90
2021/10/26 14:08:34;;;;;;;10.83;9.70;;;;;;;14.22;49.52;100069.63;5018484;28;20240;-89
2021/10/26 14:11:06;;;;;;;11.20;9.90;;;;;;;14.14;49.43;100069.16;4985100;28;20643;-91
2021/10/26 14:13:37;;;;;;;11.27;10.07;;;;;;;14.07;49.80;100072.75;5001008;28;20573;-89
2021/10/26 14:16:05;;;;;;;11.53;10.43;;;;;;;14.10;49.49;100077.69;4984322;28;20228;-90
2021/10/26 14:18:32;;;;;;;12.77;10.77;;;;;;;14.16;49.55;100067.84;4984795;28;20310;-90
2021/10/26 14:21:01;;;;;;;16.23;10.63;;;;;;;14.19;49.25;100072.75;4984837;28;20243;-90
2021/10/26 14:23:28;;;;;;;11.60;10.43;;;;;;;14.21;49.06;100059.06;5001029;28;20241;-91
2021/10/26 14:25:56;;;;;;;11.90;10.70;;;;;;;14.17;49.82;100053.31;4984713;28;20534;-89